createdAt,value
2018-05-23T00:01:29.769Z,14.10
2018-05-23T00:03:58.292Z,14.10
2018-05-23T00:06:27.656Z,14.20
2018-05-23T00:08:56.113Z,14.10
2018-05-23T00:11:24.568Z,14.10
2018-05-23T00:13:53.885Z,14.00
2018-05-23T00:16:23.100Z,14.00
2018-05-23T00:18:51.535Z,14.00
2018-05-23T00:21:20.393Z,14.00
2018-05-23T00:23:48.842Z,14.00
2018-05-23T00:26:18.245Z,13.90
2018-05-23T00:28:47.573Z,13.80
2018-05-23T00:31:16.003Z,13.80
2018-05-23T00:33:44.442Z,13.80
2018-05-23T00:36:12.880Z,13.80
2018-05-23T00:38:42.080Z,13.70
2018-05-23T00:41:11.299Z,13.80
2018-05-23T00:43:39.741Z,13.80
2018-05-23T00:46:08.178Z,13.80
2018-05-23T00:48:37.745Z,13.80
2018-05-23T00:51:07.053Z,13.80
2018-05-23T00:53:35.513Z,13.80
2018-05-23T00:56:03.965Z,13.80
2018-05-23T00:58:32.492Z,13.70
2018-05-23T01:01:01.398Z,13.70
2018-05-23T01:03:30.040Z,13.60
2018-05-23T01:05:58.520Z,13.70
2018-05-23T01:08:26.967Z,13.60
2018-05-23T01:10:56.361Z,13.60
2018-05-23T01:13:24.807Z,13.60
2018-05-23T01:15:53.336Z,13.60
2018-05-23T01:18:21.965Z,13.60
2018-05-23T01:20:49.883Z,13.70
2018-05-23T01:23:19.289Z,13.60
2018-05-23T01:25:47.741Z,13.60
2018-05-23T01:28:16.213Z,13.70
2018-05-23T01:30:44.659Z,13.70
2018-05-23T01:33:13.096Z,13.60
2018-05-23T01:35:41.588Z,13.60
2018-05-23T01:38:10.888Z,13.60
2018-05-23T01:40:40.197Z,13.50
2018-05-23T01:43:09.497Z,13.60
2018-05-23T01:45:38.734Z,13.60
2018-05-23T01:48:07.177Z,13.50
2018-05-23T01:50:36.403Z,13.60
2018-05-23T01:53:04.857Z,13.60
2018-05-23T01:55:34.265Z,13.60
2018-05-23T01:58:03.489Z,13.60
2018-05-23T02:00:31.908Z,13.60
2018-05-23T02:03:00.364Z,13.60
2018-05-23T02:05:29.117Z,13.60
2018-05-23T02:07:58.673Z,13.50
2018-05-23T02:10:27.117Z,13.50
2018-05-23T02:12:55.762Z,13.50
2018-05-23T02:15:24.209Z,13.50
2018-05-23T02:17:52.653Z,13.50
2018-05-23T02:20:21.290Z,13.40
2018-05-23T02:22:49.744Z,13.40
2018-05-23T02:25:18.192Z,13.40
2018-05-23T02:27:47.536Z,13.30
2018-05-23T02:30:15.989Z,13.30
2018-05-23T02:32:45.025Z,13.30
2018-05-23T02:35:13.480Z,13.30
2018-05-23T02:37:42.015Z,13.30
2018-05-23T02:40:10.641Z,13.20
2018-05-23T02:42:39.122Z,13.30
2018-05-23T02:45:08.312Z,13.20
2018-05-23T02:47:37.533Z,13.30
2018-05-23T02:50:05.993Z,13.20
2018-05-23T02:52:35.425Z,13.20
2018-05-23T02:55:03.856Z,13.20
2018-05-23T02:57:32.301Z,13.20
2018-05-23T03:00:00.817Z,13.30
2018-05-23T03:02:30.181Z,13.30
2018-05-23T03:04:58.637Z,13.30
2018-05-23T03:07:27.284Z,13.30
2018-05-23T03:09:55.753Z,13.20
2018-05-23T03:12:24.298Z,13.30
2018-05-23T03:14:53.072Z,13.30
2018-05-23T03:17:22.540Z,13.30
2018-05-23T03:19:51.002Z,13.30
2018-05-23T03:22:19.645Z,13.40
2018-05-23T03:24:48.921Z,13.30
2018-05-23T03:27:17.380Z,13.30
2018-05-23T03:29:46.032Z,13.30
2018-05-23T03:32:15.425Z,13.30
2018-05-23T03:34:44.835Z,13.30
2018-05-23T03:37:13.509Z,13.30
2018-05-23T03:39:42.949Z,13.30
2018-05-23T03:42:11.402Z,13.30
2018-05-23T03:44:40.817Z,13.30
2018-05-23T03:47:10.177Z,13.30
2018-05-23T03:49:38.836Z,13.30
2018-05-23T03:52:07.296Z,13.30
2018-05-23T03:54:35.748Z,13.30
2018-05-23T03:57:04.653Z,13.30
2018-05-23T03:59:45.016Z,13.40
2018-05-23T04:02:24.739Z,13.30
2018-05-23T04:05:04.670Z,13.40
2018-05-23T04:07:38.297Z,13.30
2018-05-23T04:10:06.082Z,13.40
2018-05-23T04:12:35.491Z,13.40
2018-05-23T04:15:03.792Z,13.40
2018-05-23T04:17:32.225Z,13.50
2018-05-23T04:20:00.729Z,13.40
2018-05-23T04:22:29.939Z,13.40
2018-05-23T04:25:01.264Z,13.40
2018-05-23T04:27:30.590Z,13.40
2018-05-23T04:29:59.829Z,13.40
2018-05-23T04:32:28.473Z,13.40
2018-05-23T04:34:57.896Z,13.40
2018-05-23T04:37:26.352Z,13.40
2018-05-23T04:39:55.551Z,13.50
2018-05-23T04:42:24.907Z,13.50
2018-05-23T04:44:53.365Z,13.40
2018-05-23T04:47:21.907Z,13.50
2018-05-23T04:49:51.116Z,13.50
2018-05-23T04:52:20.337Z,13.50
2018-05-23T04:54:48.867Z,13.40
2018-05-23T04:57:17.579Z,13.50
2018-05-23T04:59:46.897Z,13.50
2018-05-23T05:02:15.589Z,13.50
2018-05-23T05:04:44.048Z,13.60
2018-05-23T05:07:13.333Z,13.60
2018-05-23T05:09:41.870Z,13.60
2018-05-23T05:12:10.786Z,13.70
2018-05-23T05:14:39.228Z,13.70
2018-05-23T05:17:07.692Z,13.80
2018-05-23T05:19:36.684Z,13.80
2018-05-23T05:22:05.145Z,13.80
2018-05-23T05:24:33.608Z,13.90
2018-05-23T05:27:02.138Z,14.00
2018-05-23T05:29:32.090Z,14.00
2018-05-23T05:32:00.616Z,14.00
2018-05-23T05:34:29.089Z,14.10
2018-05-23T05:36:57.540Z,14.10
2018-05-23T05:39:26.004Z,14.10
2018-05-23T05:41:54.542Z,14.20
2018-05-23T05:44:23.012Z,14.10
2018-05-23T05:46:51.489Z,14.30
2018-05-23T05:49:21.049Z,14.20
2018-05-23T05:51:50.257Z,14.20
2018-05-23T05:54:19.656Z,14.30
2018-05-23T05:56:48.097Z,14.30
2018-05-23T05:59:16.557Z,14.30
2018-05-23T06:01:45.006Z,14.40
2018-05-23T06:04:14.441Z,14.40
2018-05-23T06:06:42.884Z,14.40
2018-05-23T06:09:12.089Z,14.50
2018-05-23T06:11:40.654Z,14.40
2018-05-23T06:14:09.238Z,14.80
2018-05-23T06:16:37.823Z,14.80
2018-05-23T06:19:06.264Z,14.90
2018-05-23T06:21:34.730Z,15.10
2018-05-23T06:24:03.266Z,15.00
2018-05-23T06:26:31.936Z,15.20
2018-05-23T06:29:00.472Z,15.30
2018-05-23T06:31:28.940Z,15.30
2018-05-23T06:33:58.352Z,15.40
2018-05-23T06:36:26.476Z,15.40
2018-05-23T06:38:54.981Z,15.40
2018-05-23T06:41:23.517Z,15.40
2018-05-23T06:43:51.964Z,15.20
2018-05-23T06:46:21.176Z,15.20
2018-05-23T06:48:49.729Z,15.20
2018-05-23T06:51:18.364Z,15.20
2018-05-23T06:53:46.820Z,15.10
2018-05-23T06:56:16.017Z,15.10
2018-05-23T06:58:45.281Z,15.30
2018-05-23T07:01:13.900Z,15.20
2018-05-23T07:03:43.158Z,15.30
2018-05-23T07:06:11.618Z,15.30
2018-05-23T07:08:40.077Z,15.30
2018-05-23T07:11:08.621Z,15.30
2018-05-23T07:13:38.091Z,15.20
2018-05-23T07:16:06.713Z,15.20
2018-05-23T07:18:35.159Z,15.20
2018-05-23T07:21:03.796Z,15.20
2018-05-23T07:23:33.041Z,15.40
2018-05-23T07:26:01.481Z,15.30
2018-05-23T07:28:30.460Z,15.30
2018-05-23T07:30:58.920Z,15.30
2018-05-23T07:33:27.558Z,15.40
2018-05-23T07:35:56.796Z,15.70
2018-05-23T07:38:25.865Z,15.60
2018-05-23T07:40:54.840Z,15.70
2018-05-23T07:43:23.806Z,15.80
2018-05-23T07:45:52.732Z,16.00
2018-05-23T07:48:21.302Z,16.00
2018-05-23T07:50:49.513Z,16.00
2018-05-23T07:53:17.952Z,16.20
2018-05-23T07:55:46.396Z,16.30
2018-05-23T07:58:14.850Z,16.40
2018-05-23T08:00:44.041Z,16.40
2018-05-23T08:03:13.253Z,16.50
2018-05-23T08:05:41.709Z,16.50
2018-05-23T08:08:10.981Z,16.70
2018-05-23T08:10:39.437Z,16.70
2018-05-23T08:13:08.173Z,16.90
2018-05-23T08:15:36.879Z,16.90
2018-05-23T08:18:06.107Z,16.70
2018-05-23T08:20:34.952Z,17.00
2018-05-23T08:23:03.408Z,17.00
2018-05-23T08:25:32.121Z,17.10
2018-05-23T08:28:01.126Z,17.10
2018-05-23T08:30:30.353Z,17.20
2018-05-23T08:32:59.756Z,17.00
2018-05-23T08:35:28.240Z,16.90
2018-05-23T08:37:56.687Z,16.90
2018-05-23T08:40:25.755Z,16.90
2018-05-23T08:42:54.201Z,16.90
2018-05-23T08:45:22.749Z,17.10
2018-05-23T08:47:51.408Z,17.00
2018-05-23T08:50:20.045Z,17.20
2018-05-23T08:52:48.498Z,17.00
2018-05-23T08:55:17.556Z,17.00
2018-05-23T08:57:46.022Z,16.90
2018-05-23T09:00:14.497Z,17.00
2018-05-23T09:02:42.981Z,17.10
2018-05-23T09:05:12.324Z,17.50
2018-05-23T09:07:40.902Z,17.60
2018-05-23T09:10:09.471Z,17.60
2018-05-23T09:12:38.501Z,17.40
2018-05-23T09:15:06.998Z,17.60
2018-05-23T09:17:36.242Z,17.80
2018-05-23T09:20:04.525Z,18.20
2018-05-23T09:22:32.981Z,18.40
2018-05-23T09:25:01.520Z,18.40
2018-05-23T09:27:30.181Z,18.30
2018-05-23T09:29:58.641Z,18.50
2018-05-23T09:32:27.704Z,18.40
2018-05-23T09:34:56.177Z,18.30
2018-05-23T09:37:24.688Z,18.20
2018-05-23T09:39:53.917Z,17.90
2018-05-23T09:42:23.274Z,17.90
2018-05-23T09:44:51.769Z,17.80
2018-05-23T09:47:20.965Z,18.20
2018-05-23T09:49:50.176Z,18.50
2018-05-23T09:52:19.389Z,18.60
2018-05-23T09:54:47.822Z,18.60
2018-05-23T09:57:16.473Z,18.60
2018-05-23T09:59:44.904Z,18.30
2018-05-23T10:02:13.368Z,18.40
2018-05-23T10:04:41.796Z,18.30
2018-05-23T10:07:10.240Z,18.30
2018-05-23T10:09:38.918Z,18.30
2018-05-23T10:12:07.364Z,18.30
2018-05-23T10:14:35.809Z,18.40
2018-05-23T10:17:05.008Z,18.30
2018-05-23T10:19:34.230Z,18.20
2018-05-23T10:22:02.681Z,18.10
2018-05-23T10:24:31.127Z,18.20
2018-05-23T10:26:59.616Z,18.20
2018-05-23T10:29:28.075Z,18.00
2018-05-23T10:31:56.525Z,17.90
2018-05-23T10:34:25.755Z,18.00
2018-05-23T10:36:54.408Z,18.00
2018-05-23T10:39:23.628Z,18.10
2018-05-23T10:41:52.113Z,18.10
2018-05-23T10:44:20.561Z,18.20
2018-05-23T10:46:49.803Z,18.20
2018-05-23T10:49:18.248Z,18.10
2018-05-23T10:51:47.585Z,18.40
2018-05-23T10:54:16.171Z,18.40
2018-05-23T10:56:45.624Z,18.70
2018-05-23T10:59:14.265Z,19.00
2018-05-23T11:01:42.704Z,19.10
2018-05-23T11:04:11.937Z,19.20
2018-05-23T11:06:40.558Z,19.10
2018-05-23T11:09:09.016Z,19.30
2018-05-23T11:11:37.525Z,19.60
2018-05-23T11:14:06.009Z,19.80
2018-05-23T11:16:34.564Z,19.80
2018-05-23T11:19:03.032Z,19.20
2018-05-23T11:21:31.648Z,19.70
2018-05-23T11:24:00.116Z,19.60
2018-05-23T11:26:28.581Z,19.50
2018-05-23T11:28:57.080Z,19.70
2018-05-23T11:31:25.509Z,19.70
2018-05-23T11:33:53.996Z,20.10
2018-05-23T11:36:22.472Z,20.30
2018-05-23T11:38:50.913Z,20.80
2018-05-23T11:41:19.364Z,20.40
2018-05-23T11:43:48.568Z,19.60
2018-05-23T11:46:17.033Z,19.50
2018-05-23T11:48:46.436Z,19.90
2018-05-23T11:51:15.824Z,19.90
2018-05-23T11:53:44.473Z,19.90
2018-05-23T11:56:12.917Z,20.00
2018-05-23T11:58:42.251Z,20.30
2018-05-23T12:01:10.697Z,20.20
2018-05-23T12:03:39.916Z,20.20
2018-05-23T12:06:08.352Z,20.20
2018-05-23T12:08:36.856Z,21.00
2018-05-23T12:11:06.077Z,20.40
2018-05-23T12:13:34.580Z,20.30
2018-05-23T12:16:03.101Z,21.00
2018-05-23T12:18:31.743Z,20.40
2018-05-23T12:21:00.254Z,20.10
2018-05-23T12:23:28.697Z,20.10
2018-05-23T12:25:57.167Z,20.00
2018-05-23T12:28:26.497Z,20.80
2018-05-23T12:30:54.982Z,20.80
2018-05-23T12:33:23.428Z,21.30
2018-05-23T12:35:52.726Z,21.00
2018-05-23T12:38:21.940Z,21.50
2018-05-23T12:40:51.256Z,20.90
2018-05-23T12:43:19.929Z,20.90
2018-05-23T12:45:49.167Z,21.50
2018-05-23T12:48:17.788Z,21.40
2018-05-23T12:50:46.466Z,22.10
2018-05-23T12:53:14.920Z,22.40
2018-05-23T12:55:43.375Z,22.50
2018-05-23T12:58:12.101Z,22.70
2018-05-23T13:00:40.668Z,21.90
2018-05-23T13:03:09.320Z,22.30
2018-05-23T13:05:38.420Z,22.20
2018-05-23T13:08:07.637Z,22.00
2018-05-23T13:10:36.185Z,22.00
2018-05-23T13:13:04.585Z,22.30
2018-05-23T13:15:33.896Z,21.90
2018-05-23T13:18:02.324Z,21.80
2018-05-23T13:20:30.982Z,21.80
2018-05-23T13:22:59.422Z,21.30
2018-05-23T13:25:28.628Z,21.40
2018-05-23T13:27:57.869Z,21.30
2018-05-23T13:30:26.345Z,21.30
2018-05-23T13:32:55.742Z,21.60
2018-05-23T13:35:24.181Z,21.50
2018-05-23T13:37:52.688Z,22.70
2018-05-23T13:40:22.088Z,24.00
2018-05-23T13:42:51.316Z,23.90
2018-05-23T13:45:19.767Z,23.80
2018-05-23T13:47:48.975Z,22.40
2018-05-23T13:50:18.433Z,21.80
2018-05-23T13:52:47.157Z,21.70
2018-05-23T13:55:16.441Z,21.60
2018-05-23T13:57:45.118Z,21.60
2018-05-23T14:00:13.605Z,21.70
2018-05-23T14:02:42.069Z,22.20
2018-05-23T14:05:10.519Z,22.60
2018-05-23T14:07:39.380Z,23.20
2018-05-23T14:10:08.814Z,22.80
2018-05-23T14:12:37.473Z,22.70
2018-05-23T14:15:06.684Z,23.20
2018-05-23T14:17:35.888Z,23.20
2018-05-23T14:20:03.775Z,23.10
2018-05-23T14:22:32.229Z,22.90
2018-05-23T14:25:01.469Z,23.00
2018-05-23T14:27:30.096Z,23.00
2018-05-23T14:29:59.349Z,23.90
2018-05-23T14:32:27.800Z,23.80
2018-05-23T14:34:57.037Z,23.70
2018-05-23T14:37:25.669Z,23.70
2018-05-23T14:39:54.916Z,23.60
2018-05-23T14:42:23.460Z,23.60
2018-05-23T14:44:52.710Z,22.00
2018-05-23T14:47:21.169Z,21.90
2018-05-23T14:49:49.734Z,21.70
2018-05-23T14:52:18.963Z,21.50
2018-05-23T14:54:47.446Z,21.40
2018-05-23T14:57:16.033Z,21.50
2018-05-23T14:59:44.637Z,22.00
2018-05-23T15:02:13.093Z,21.90
2018-05-23T15:04:41.608Z,22.30
2018-05-23T15:07:10.269Z,22.90
2018-05-23T15:09:38.744Z,22.90
2018-05-23T15:12:07.420Z,23.10
2018-05-23T15:14:36.950Z,23.10
2018-05-23T15:17:05.284Z,23.00
2018-05-23T15:19:33.744Z,23.20
2018-05-23T15:22:02.227Z,23.40
2018-05-23T15:24:30.667Z,23.50
2018-05-23T15:26:59.397Z,23.60
2018-05-23T15:29:28.155Z,23.30
2018-05-23T15:31:56.749Z,22.90
2018-05-23T15:34:25.193Z,22.20
2018-05-23T15:36:53.812Z,21.80
2018-05-23T15:39:22.417Z,22.40
2018-05-23T15:41:50.870Z,22.70
2018-05-23T15:44:19.305Z,23.10
2018-05-23T15:46:48.637Z,23.20
2018-05-23T15:49:17.272Z,23.20
2018-05-23T15:51:45.736Z,22.50
2018-05-23T15:54:14.187Z,23.00
2018-05-23T15:56:42.652Z,23.50
2018-05-23T15:59:11.882Z,23.90
2018-05-23T16:01:40.398Z,23.80
2018-05-23T16:04:08.853Z,24.10
2018-05-23T16:06:37.418Z,24.00
2018-05-23T16:09:05.247Z,23.40
2018-05-23T16:11:33.833Z,22.80
2018-05-23T16:14:02.421Z,22.90
2018-05-23T16:16:30.973Z,23.30
2018-05-23T16:18:59.443Z,23.60
2018-05-23T16:21:28.073Z,23.40
2018-05-23T16:23:57.281Z,24.30
2018-05-23T16:26:26.784Z,23.80
2018-05-23T16:28:56.077Z,23.60
2018-05-23T16:31:24.576Z,23.60
2018-05-23T16:33:53.802Z,23.80
2018-05-23T16:36:23.093Z,23.80
2018-05-23T16:38:52.654Z,24.10
2018-05-23T16:41:21.240Z,24.00
2018-05-23T16:43:49.893Z,24.30
2018-05-23T16:46:19.292Z,24.40
2018-05-23T16:48:47.909Z,24.30
2018-05-23T16:51:16.366Z,24.10
2018-05-23T16:53:44.816Z,24.10
2018-05-23T16:56:14.044Z,24.50
2018-05-23T16:58:42.521Z,24.40
2018-05-23T17:01:10.948Z,24.30
2018-05-23T17:03:39.420Z,24.00
2018-05-23T17:06:07.873Z,24.20
2018-05-23T17:08:36.442Z,24.10
2018-05-23T17:11:05.281Z,23.80
2018-05-23T17:13:33.755Z,23.60
2018-05-23T17:16:02.188Z,24.20
2018-05-23T17:18:31.656Z,23.50
2018-05-23T17:21:00.117Z,23.50
2018-05-23T17:23:28.595Z,23.60
2018-05-23T17:25:57.149Z,23.70
2018-05-23T17:28:26.399Z,23.40
2018-05-23T17:30:54.849Z,23.30
2018-05-23T17:33:23.356Z,23.20
2018-05-23T17:35:52.020Z,23.20
2018-05-23T17:38:20.474Z,23.00
2018-05-23T17:40:49.469Z,22.40
2018-05-23T17:43:18.427Z,22.80
2018-05-23T17:45:47.103Z,22.80
2018-05-23T17:48:16.569Z,22.60
2018-05-23T17:50:45.143Z,22.50
2018-05-23T17:53:14.359Z,22.00
2018-05-23T17:55:42.830Z,21.90
2018-05-23T17:58:12.276Z,22.10
2018-05-23T18:00:40.817Z,22.00
2018-05-23T18:03:09.292Z,22.10
2018-05-23T18:05:38.533Z,22.00
2018-05-23T18:08:07.341Z,21.90
2018-05-23T18:10:35.790Z,22.20
2018-05-23T18:13:04.358Z,22.00
2018-05-23T18:15:33.772Z,21.90
2018-05-23T18:18:02.345Z,21.80
2018-05-23T18:20:30.853Z,21.50
2018-05-23T18:22:59.657Z,21.50
2018-05-23T18:25:28.191Z,21.40
2018-05-23T18:27:57.436Z,20.60
2018-05-23T18:30:25.929Z,20.60
2018-05-23T18:32:54.396Z,20.30
2018-05-23T18:35:22.861Z,20.30
2018-05-23T18:37:52.353Z,20.00
2018-05-23T18:40:20.816Z,20.00
2018-05-23T18:42:50.041Z,19.50
2018-05-23T18:45:18.506Z,19.30
2018-05-23T18:47:46.968Z,19.30
2018-05-23T18:50:15.491Z,19.20
2018-05-23T18:52:44.095Z,19.40
2018-05-23T18:55:12.582Z,19.20
2018-05-23T18:57:41.188Z,18.90
2018-05-23T19:00:09.694Z,18.80
2018-05-23T19:02:38.314Z,18.70
2018-05-23T19:05:07.258Z,18.60
2018-05-23T19:07:36.604Z,18.70
2018-05-23T19:10:04.391Z,18.60
2018-05-23T19:12:32.889Z,18.70
2018-05-23T19:15:01.453Z,18.60
2018-05-23T19:17:29.914Z,18.40
2018-05-23T19:19:59.369Z,18.20
2018-05-23T19:22:27.952Z,18.30
2018-05-23T19:24:56.471Z,18.20
2018-05-23T19:27:24.930Z,18.10
2018-05-23T19:29:53.601Z,18.10
2018-05-23T19:32:22.268Z,17.90
2018-05-23T19:34:50.902Z,17.70
2018-05-23T19:37:19.362Z,17.80
2018-05-23T19:39:48.099Z,17.70
2018-05-23T19:42:17.060Z,17.80
2018-05-23T19:44:45.778Z,17.60
2018-05-23T19:47:15.010Z,17.70
2018-05-23T19:49:43.440Z,17.60
2018-05-23T19:52:12.685Z,17.60
2018-05-23T19:54:41.143Z,17.60
2018-05-23T19:57:09.893Z,17.50
2018-05-23T19:59:38.381Z,17.40
2018-05-23T20:02:06.959Z,17.30
2018-05-23T20:04:35.541Z,17.50
2018-05-23T20:07:04.153Z,17.30
2018-05-23T20:09:32.833Z,17.30
2018-05-23T20:12:01.041Z,17.10
2018-05-23T20:14:29.583Z,17.00
2018-05-23T20:16:59.007Z,17.00
2018-05-23T20:19:27.609Z,17.00
2018-05-23T20:21:57.039Z,17.10
2018-05-23T20:24:25.384Z,17.00
2018-05-23T20:26:54.792Z,16.90
2018-05-23T20:29:24.030Z,16.90
2018-05-23T20:31:53.397Z,16.80
2018-05-23T20:34:22.661Z,16.60
2018-05-23T20:36:51.090Z,16.50
2018-05-23T20:39:19.557Z,16.40
2018-05-23T20:41:48.806Z,16.40
2018-05-23T20:44:17.441Z,16.40
2018-05-23T20:46:46.670Z,16.50
2018-05-23T20:49:15.251Z,16.40
2018-05-23T20:51:43.734Z,16.40
2018-05-23T20:54:12.205Z,16.20
2018-05-23T20:56:40.668Z,16.20
2018-05-23T20:59:09.132Z,16.10
2018-05-23T21:01:37.573Z,16.10
2018-05-23T21:04:06.853Z,16.20
2018-05-23T21:06:35.562Z,16.30
2018-05-23T21:09:03.473Z,16.20
2018-05-23T21:11:31.975Z,16.20
2018-05-23T21:14:00.645Z,16.20
2018-05-23T21:16:29.113Z,16.30
2018-05-23T21:18:57.572Z,16.30
2018-05-23T21:21:26.188Z,16.30
2018-05-23T21:23:54.845Z,16.00
2018-05-23T21:26:23.321Z,15.80
2018-05-23T21:28:51.732Z,15.70
2018-05-23T21:31:20.196Z,15.70
2018-05-23T21:33:48.669Z,15.80
2018-05-23T21:36:17.360Z,15.90
2018-05-23T21:38:45.812Z,15.70
2018-05-23T21:41:15.173Z,15.70
2018-05-23T21:43:43.655Z,15.70
2018-05-23T21:46:12.228Z,15.70
2018-05-23T21:48:40.706Z,15.70
2018-05-23T21:51:09.169Z,15.80
2018-05-23T21:53:37.621Z,15.80
2018-05-23T21:56:06.817Z,15.70
2018-05-23T21:58:36.042Z,15.80
2018-05-23T22:01:04.504Z,15.80
2018-05-23T22:03:33.815Z,15.80
2018-05-23T22:06:03.033Z,15.70
2018-05-23T22:08:31.486Z,15.60
2018-05-23T22:11:00.718Z,15.60
2018-05-23T22:13:29.173Z,15.50
2018-05-23T22:15:58.395Z,15.40
2018-05-23T22:18:27.084Z,15.40
2018-05-23T22:20:55.524Z,15.20
2018-05-23T22:23:24.740Z,15.10
2018-05-23T22:25:53.963Z,15.00
2018-05-23T22:28:22.396Z,14.90
2018-05-23T22:30:50.731Z,15.00
2018-05-23T22:33:20.101Z,14.90
2018-05-23T22:35:49.338Z,15.00
2018-05-23T22:38:17.793Z,15.00
2018-05-23T22:40:46.256Z,15.00
2018-05-23T22:43:15.510Z,14.80
2018-05-23T22:45:44.256Z,14.70
2018-05-23T22:48:13.401Z,14.70
2018-05-23T22:50:41.854Z,14.70
2018-05-23T22:53:10.405Z,14.70
2018-05-23T22:55:39.682Z,14.70
2018-05-23T22:58:08.549Z,14.80
2018-05-23T23:00:37.004Z,14.80
2018-05-23T23:03:05.664Z,14.80
2018-05-23T23:05:35.043Z,14.80
2018-05-23T23:08:03.561Z,14.70
2018-05-23T23:10:32.146Z,14.60
2018-05-23T23:13:01.345Z,14.60
2018-05-23T23:15:30.574Z,14.80
2018-05-23T23:17:59.045Z,14.70
2018-05-23T23:20:27.493Z,14.70
2018-05-23T23:22:55.991Z,14.90
2018-05-23T23:25:24.713Z,14.90
2018-05-23T23:27:53.252Z,14.90
2018-05-23T23:30:22.609Z,14.70
2018-05-23T23:32:51.146Z,14.60
2018-05-23T23:35:20.352Z,14.40
2018-05-23T23:37:49.637Z,14.50
2018-05-23T23:40:18.095Z,14.40
2018-05-23T23:42:46.745Z,14.40
2018-05-23T23:45:15.200Z,14.40
2018-05-23T23:47:44.723Z,14.30
2018-05-23T23:50:12.929Z,14.30
2018-05-23T23:52:41.588Z,14.40
2018-05-23T23:55:10.041Z,14.40
2018-05-23T23:57:38.578Z,14.40
